sensor_id;sensor_type;location;lat;lon;timestamp;pressure;altitude;pressure_sealevel;temperature;humidity
49827;BME280;35715;51.570;6.036;2023-04-23T00:01:26;100684.91;;;11.65;85.65
49827;BME280;35715;51.570;6.036;2023-04-23T00:03:53;100677.50;;;11.56;86.07
49827;BME280;35715;51.570;6.036;2023-04-23T00:06:20;100682.66;;;11.56;86.71
49827;BME280;35715;51.570;6.036;2023-04-23T00:08:54;100684.38;;;11.56;86.63
49827;BME280;35715;51.570;6.036;2023-04-23T00:11:21;100673.22;;;11.57;87.13
49827;BME280;35715;51.570;6.036;2023-04-23T00:13:46;100681.06;;;11.58;87.06
49827;BME280;35715;51.570;6.036;2023-04-23T00:16:13;100673.22;;;11.57;86.72
49827;BME280;35715;51.570;6.036;2023-04-23T00:18:41;100683.53;;;11.57;86.42
49827;BME280;35715;51.570;6.036;2023-04-23T00:21:07;100677.31;;;11.53;86.45
49827;BME280;35715;51.570;6.036;2023-04-23T00:23:33;100677.34;;;11.40;86.83
49827;BME280;35715;51.570;6.036;2023-04-23T00:25:58;100676.28;;;11.36;87.40
49827;BME280;35715;51.570;6.036;2023-04-23T00:28:29;100674.50;;;11.35;87.49
49827;BME280;35715;51.570;6.036;2023-04-23T00:30:54;100674.88;;;11.41;87.04
49827;BME280;35715;51.570;6.036;2023-04-23T00:33:19;100673.59;;;11.34;87.04
49827;BME280;35715;51.570;6.036;2023-04-23T00:35:45;100670.47;;;11.25;87.70
49827;BME280;35715;51.570;6.036;2023-04-23T00:38:11;100675.91;;;11.30;87.66
49827;BME280;35715;51.570;6.036;2023-04-23T00:40:36;100662.00;;;11.28;87.95
49827;BME280;35715;51.570;6.036;2023-04-23T00:43:01;100662.81;;;11.27;87.80
49827;BME280;35715;51.570;6.036;2023-04-23T00:45:27;100654.03;;;11.25;87.20
49827;BME280;35715;51.570;6.036;2023-04-23T00:48:06;100648.97;;;11.26;87.93
49827;BME280;35715;51.570;6.036;2023-04-23T00:50:32;100662.66;;;11.10;88.64
49827;BME280;35715;51.570;6.036;2023-04-23T00:52:57;100660.38;;;11.01;89.53
49827;BME280;35715;51.570;6.036;2023-04-23T00:55:22;100651.84;;;11.03;89.46
49827;BME280;35715;51.570;6.036;2023-04-23T00:57:50;100652.53;;;11.00;89.59
49827;BME280;35715;51.570;6.036;2023-04-23T01:00:15;100646.41;;;10.98;89.24
49827;BME280;35715;51.570;6.036;2023-04-23T01:02:41;100649.94;;;11.00;89.61
49827;BME280;35715;51.570;6.036;2023-04-23T01:05:08;100640.59;;;11.02;89.29
49827;BME280;35715;51.570;6.036;2023-04-23T01:07:34;100635.44;;;11.02;89.52
49827;BME280;35715;51.570;6.036;2023-04-23T01:09:59;100633.16;;;11.07;89.59
49827;BME280;35715;51.570;6.036;2023-04-23T01:12:25;100639.03;;;11.04;89.57
49827;BME280;35715;51.570;6.036;2023-04-23T01:14:51;100630.44;;;10.90;90.75
49827;BME280;35715;51.570;6.036;2023-04-23T01:17:16;100627.97;;;10.78;92.19
49827;BME280;35715;51.570;6.036;2023-04-23T01:19:41;100632.66;;;10.57;95.27
49827;BME280;35715;51.570;6.036;2023-04-23T01:22:08;100631.56;;;10.54;96.03
49827;BME280;35715;51.570;6.036;2023-04-23T01:24:33;100628.19;;;10.55;95.34
49827;BME280;35715;51.570;6.036;2023-04-23T01:26:58;100627.28;;;10.68;94.75
49827;BME280;35715;51.570;6.036;2023-04-23T01:29:24;100627.38;;;10.69;94.38
49827;BME280;35715;51.570;6.036;2023-04-23T01:31:49;100627.97;;;10.65;94.98
49827;BME280;35715;51.570;6.036;2023-04-23T01:34:15;100628.66;;;10.62;95.29
49827;BME280;35715;51.570;6.036;2023-04-23T01:36:41;100631.91;;;10.73;95.23
49827;BME280;35715;51.570;6.036;2023-04-23T01:39:07;100631.03;;;10.86;94.59
49827;BME280;35715;51.570;6.036;2023-04-23T01:41:33;100624.81;;;10.97;93.60
49827;BME280;35715;51.570;6.036;2023-04-23T01:43:59;100612.94;;;10.99;93.25
49827;BME280;35715;51.570;6.036;2023-04-23T01:46:25;100622.50;;;10.87;93.87
49827;BME280;35715;51.570;6.036;2023-04-23T01:49:02;100618.91;;;10.72;95.17
49827;BME280;35715;51.570;6.036;2023-04-23T01:51:28;100616.53;;;10.75;95.14
49827;BME280;35715;51.570;6.036;2023-04-23T01:53:53;100612.56;;;10.80;95.14
49827;BME280;35715;51.570;6.036;2023-04-23T01:56:19;100611.34;;;10.88;94.60
49827;BME280;35715;51.570;6.036;2023-04-23T01:58:54;100614.22;;;10.93;94.28
49827;BME280;35715;51.570;6.036;2023-04-23T02:01:19;100624.16;;;10.87;94.57
49827;BME280;35715;51.570;6.036;2023-04-23T02:03:45;100619.47;;;10.94;94.11
49827;BME280;35715;51.570;6.036;2023-04-23T02:06:11;100612.84;;;10.98;93.89
49827;BME280;35715;51.570;6.036;2023-04-23T02:08:40;100610.53;;;11.03;93.79
49827;BME280;35715;51.570;6.036;2023-04-23T02:11:06;100621.56;;;11.00;93.43
49827;BME280;35715;51.570;6.036;2023-04-23T02:13:31;100620.09;;;10.90;94.08
49827;BME280;35715;51.570;6.036;2023-04-23T02:15:57;100607.56;;;10.96;94.09
49827;BME280;35715;51.570;6.036;2023-04-23T02:18:23;100620.78;;;10.88;94.23
49827;BME280;35715;51.570;6.036;2023-04-23T02:20:48;100609.06;;;10.79;95.03
49827;BME280;35715;51.570;6.036;2023-04-23T02:23:14;100611.34;;;10.88;94.48
49827;BME280;35715;51.570;6.036;2023-04-23T02:25:39;100609.50;;;10.86;94.94
49827;BME280;35715;51.570;6.036;2023-04-23T02:30:37;100604.28;;;10.99;94.36
49827;BME280;35715;51.570;6.036;2023-04-23T02:33:04;100601.19;;;11.05;93.73
49827;BME280;35715;51.570;6.036;2023-04-23T02:35:29;100596.34;;;10.96;94.17
49827;BME280;35715;51.570;6.036;2023-04-23T02:40:27;100593.31;;;10.75;95.12
49827;BME280;35715;51.570;6.036;2023-04-23T02:42:53;100595.38;;;10.80;95.08
49827;BME280;35715;51.570;6.036;2023-04-23T02:45:18;100596.59;;;10.86;94.90
49827;BME280;35715;51.570;6.036;2023-04-23T02:48:01;100585.44;;;10.87;94.78
49827;BME280;35715;51.570;6.036;2023-04-23T02:50:26;100596.19;;;10.79;94.97
49827;BME280;35715;51.570;6.036;2023-04-23T02:52:51;100590.13;;;10.79;94.86
49827;BME280;35715;51.570;6.036;2023-04-23T02:55:16;100593.50;;;10.78;94.65
49827;BME280;35715;51.570;6.036;2023-04-23T02:57:54;100596.72;;;10.74;94.36
49827;BME280;35715;51.570;6.036;2023-04-23T03:00:19;100591.06;;;10.66;95.56
49827;BME280;35715;51.570;6.036;2023-04-23T03:02:44;100583.03;;;10.61;95.40
49827;BME280;35715;51.570;6.036;2023-04-23T03:05:10;100591.84;;;10.65;94.96
49827;BME280;35715;51.570;6.036;2023-04-23T03:07:35;100581.25;;;10.60;95.67
49827;BME280;35715;51.570;6.036;2023-04-23T03:10:00;100590.88;;;10.50;96.12
49827;BME280;35715;51.570;6.036;2023-04-23T03:12:26;100584.13;;;10.52;95.79
49827;BME280;35715;51.570;6.036;2023-04-23T03:14:51;100582.84;;;10.45;96.68
49827;BME280;35715;51.570;6.036;2023-04-23T03:17:16;100580.38;;;10.46;95.98
49827;BME280;35715;51.570;6.036;2023-04-23T03:19:43;100579.47;;;10.33;96.97
49827;BME280;35715;51.570;6.036;2023-04-23T03:22:09;100579.38;;;10.31;97.37
49827;BME280;35715;51.570;6.036;2023-04-23T03:24:34;100586.50;;;10.35;96.63
49827;BME280;35715;51.570;6.036;2023-04-23T03:26:59;100579.78;;;10.37;96.18
49827;BME280;35715;51.570;6.036;2023-04-23T03:31:53;100579.16;;;10.28;96.18
49827;BME280;35715;51.570;6.036;2023-04-23T03:34:18;100577.97;;;10.23;96.53
49827;BME280;35715;51.570;6.036;2023-04-23T03:36:43;100575.38;;;10.23;96.70
49827;BME280;35715;51.570;6.036;2023-04-23T03:41:48;100576.59;;;10.15;97.62
49827;BME280;35715;51.570;6.036;2023-04-23T03:44:14;100577.16;;;10.10;98.55
49827;BME280;35715;51.570;6.036;2023-04-23T03:46:40;100571.44;;;10.15;98.02
49827;BME280;35715;51.570;6.036;2023-04-23T03:49:17;100568.06;;;10.02;99.40
49827;BME280;35715;51.570;6.036;2023-04-23T03:51:42;100567.16;;;10.02;99.14
49827;BME280;35715;51.570;6.036;2023-04-23T03:54:08;100571.03;;;10.08;98.57
49827;BME280;35715;51.570;6.036;2023-04-23T03:56:33;100572.13;;;10.12;98.03
49827;BME280;35715;51.570;6.036;2023-04-23T04:01:27;100571.72;;;10.06;98.68
49827;BME280;35715;51.570;6.036;2023-04-23T04:03:53;100573.91;;;10.13;98.31
49827;BME280;35715;51.570;6.036;2023-04-23T04:06:18;100571.34;;;10.13;97.83
49827;BME280;35715;51.570;6.036;2023-04-23T04:08:59;100567.16;;;10.15;97.32
49827;BME280;35715;51.570;6.036;2023-04-23T04:11:25;100564.28;;;10.10;97.78
49827;BME280;35715;51.570;6.036;2023-04-23T04:13:50;100569.44;;;10.10;98.10
49827;BME280;35715;51.570;6.036;2023-04-23T04:16:16;100564.97;;;10.08;99.12
49827;BME280;35715;51.570;6.036;2023-04-23T04:18:43;100564.69;;;10.17;98.79
49827;BME280;35715;51.570;6.036;2023-04-23T04:21:08;100560.41;;;10.30;97.81
49827;BME280;35715;51.570;6.036;2023-04-23T04:23:33;100561.53;;;10.34;96.99
49827;BME280;35715;51.570;6.036;2023-04-23T04:26:00;100560.03;;;10.38;96.81
49827;BME280;35715;51.570;6.036;2023-04-23T04:28:43;100565.19;;;10.38;96.34
49827;BME280;35715;51.570;6.036;2023-04-23T04:31:09;100558.72;;;10.31;96.46
49827;BME280;35715;51.570;6.036;2023-04-23T04:33:34;100563.06;;;10.32;96.50
49827;BME280;35715;51.570;6.036;2023-04-23T04:36:00;100559.31;;;10.27;97.11
49827;BME280;35715;51.570;6.036;2023-04-23T04:38:27;100556.84;;;10.28;97.30
49827;BME280;35715;51.570;6.036;2023-04-23T04:40:53;100564.38;;;10.25;97.63
49827;BME280;35715;51.570;6.036;2023-04-23T04:43:19;100559.31;;;10.27;97.65
49827;BME280;35715;51.570;6.036;2023-04-23T04:45:45;100564.13;;;10.34;96.96
49827;BME280;35715;51.570;6.036;2023-04-23T04:48:22;100568.25;;;10.45;97.16
49827;BME280;35715;51.570;6.036;2023-04-23T04:50:47;100566.16;;;10.53;96.82
49827;BME280;35715;51.570;6.036;2023-04-23T04:53:13;100564.59;;;10.55;96.51
49827;BME280;35715;51.570;6.036;2023-04-23T04:55:38;100568.84;;;10.55;96.47
49827;BME280;35715;51.570;6.036;2023-04-23T04:58:03;100570.44;;;10.53;97.34
49827;BME280;35715;51.570;6.036;2023-04-23T05:00:29;100577.78;;;10.60;96.77
49827;BME280;35715;51.570;6.036;2023-04-23T05:02:54;100573.00;;;10.66;96.45
49827;BME280;35715;51.570;6.036;2023-04-23T05:05:21;100561.47;;;10.74;96.16
49827;BME280;35715;51.570;6.036;2023-04-23T05:07:49;100560.88;;;10.78;96.16
49827;BME280;35715;51.570;6.036;2023-04-23T05:10:14;100565.84;;;10.75;96.57
49827;BME280;35715;51.570;6.036;2023-04-23T05:12:40;100560.03;;;10.79;96.05
49827;BME280;35715;51.570;6.036;2023-04-23T05:15:09;100551.63;;;10.82;96.21
49827;BME280;35715;51.570;6.036;2023-04-23T05:17:37;100557.69;;;10.82;96.04
49827;BME280;35715;51.570;6.036;2023-04-23T05:20:02;100561.25;;;10.85;96.05
49827;BME280;35715;51.570;6.036;2023-04-23T05:22:27;100557.97;;;10.87;96.10
49827;BME280;35715;51.570;6.036;2023-04-23T05:24:53;100557.34;;;10.91;95.52
49827;BME280;35715;51.570;6.036;2023-04-23T05:27:18;100564.47;;;10.95;95.50
49827;BME280;35715;51.570;6.036;2023-04-23T05:32:18;100569.91;;;11.00;96.12
49827;BME280;35715;51.570;6.036;2023-04-23T05:34:43;100571.41;;;11.10;95.35
49827;BME280;35715;51.570;6.036;2023-04-23T05:37:08;100569.78;;;11.12;95.40
49827;BME280;35715;51.570;6.036;2023-04-23T05:39:37;100563.19;;;11.17;95.45
49827;BME280;35715;51.570;6.036;2023-04-23T05:42:02;100573.81;;;11.22;95.47
49827;BME280;35715;51.570;6.036;2023-04-23T05:44:28;100565.34;;;11.24;95.08
49827;BME280;35715;51.570;6.036;2023-04-23T05:46:53;100563.84;;;11.28;95.07
49827;BME280;35715;51.570;6.036;2023-04-23T05:49:22;100560.38;;;11.27;95.29
49827;BME280;35715;51.570;6.036;2023-04-23T05:51:48;100564.03;;;11.31;95.44
49827;BME280;35715;51.570;6.036;2023-04-23T05:54:13;100575.81;;;11.41;95.19
49827;BME280;35715;51.570;6.036;2023-04-23T05:56:38;100573.78;;;11.50;95.14
49827;BME280;35715;51.570;6.036;2023-04-23T06:01:51;100567.00;;;11.67;94.92
49827;BME280;35715;51.570;6.036;2023-04-23T06:04:17;100568.03;;;11.69;94.97
49827;BME280;35715;51.570;6.036;2023-04-23T06:06:42;100573.72;;;11.78;94.62
49827;BME280;35715;51.570;6.036;2023-04-23T06:09:14;100563.47;;;11.80;94.62
49827;BME280;35715;51.570;6.036;2023-04-23T06:11:40;100566.31;;;11.84;94.59
49827;BME280;35715;51.570;6.036;2023-04-23T06:14:05;100551.88;;;11.88;94.87
49827;BME280;35715;51.570;6.036;2023-04-23T06:16:30;100556.53;;;11.94;94.69
49827;BME280;35715;51.570;6.036;2023-04-23T06:19:12;100554.13;;;11.97;94.67
49827;BME280;35715;51.570;6.036;2023-04-23T06:21:45;100555.63;;;12.08;94.09
49827;BME280;35715;51.570;6.036;2023-04-23T06:24:10;100552.50;;;12.14;94.79
49827;BME280;35715;51.570;6.036;2023-04-23T06:26:36;100557.22;;;12.21;94.40
49827;BME280;35715;51.570;6.036;2023-04-23T06:29:02;100555.94;;;12.29;94.17
49827;BME280;35715;51.570;6.036;2023-04-23T06:31:27;100558.16;;;12.38;94.17
49827;BME280;35715;51.570;6.036;2023-04-23T06:33:53;100552.69;;;12.48;94.18
49827;BME280;35715;51.570;6.036;2023-04-23T06:36:19;100554.78;;;12.70;94.46
49827;BME280;35715;51.570;6.036;2023-04-23T06:41:21;100542.03;;;13.92;87.60
49827;BME280;35715;51.570;6.036;2023-04-23T06:43:46;100542.75;;;14.43;84.60
49827;BME280;35715;51.570;6.036;2023-04-23T06:46:12;100551.00;;;14.90;81.67
49827;BME280;35715;51.570;6.036;2023-04-23T06:48:52;100544.25;;;15.54;81.72
49827;BME280;35715;51.570;6.036;2023-04-23T06:51:17;100537.13;;;16.11;76.74
49827;BME280;35715;51.570;6.036;2023-04-23T06:53:43;100535.78;;;16.44;71.66
49827;BME280;35715;51.570;6.036;2023-04-23T06:56:08;100527.97;;;16.89;72.26
49827;BME280;35715;51.570;6.036;2023-04-23T06:58:47;100520.53;;;17.24;70.84
49827;BME280;35715;51.570;6.036;2023-04-23T07:01:12;100519.75;;;17.78;69.11
49827;BME280;35715;51.570;6.036;2023-04-23T07:03:38;100528.75;;;18.14;66.73
49827;BME280;35715;51.570;6.036;2023-04-23T07:06:03;100521.88;;;18.44;64.25
49827;BME280;35715;51.570;6.036;2023-04-23T07:08:34;100515.47;;;18.92;62.92
49827;BME280;35715;51.570;6.036;2023-04-23T07:11:00;100515.13;;;19.12;62.14
49827;BME280;35715;51.570;6.036;2023-04-23T07:13:25;100502.81;;;19.40;60.17
49827;BME280;35715;51.570;6.036;2023-04-23T07:15:50;100498.66;;;19.81;59.79
49827;BME280;35715;51.570;6.036;2023-04-23T07:18:18;100501.00;;;20.07;57.90
49827;BME280;35715;51.570;6.036;2023-04-23T07:20:45;100505.53;;;20.14;56.88
49827;BME280;35715;51.570;6.036;2023-04-23T07:23:10;100496.94;;;20.60;57.27
49827;BME280;35715;51.570;6.036;2023-04-23T07:25:35;100491.22;;;20.36;55.15
49827;BME280;35715;51.570;6.036;2023-04-23T07:28:18;100502.63;;;20.80;54.36
49827;BME280;35715;51.570;6.036;2023-04-23T07:30:43;100503.56;;;20.82;52.77
49827;BME280;35715;51.570;6.036;2023-04-23T07:33:08;100501.66;;;21.20;54.12
49827;BME280;35715;51.570;6.036;2023-04-23T07:35:34;100497.91;;;21.53;52.11
49827;BME280;35715;51.570;6.036;2023-04-23T07:37:59;100496.94;;;22.02;54.61
49827;BME280;35715;51.570;6.036;2023-04-23T07:40:25;100497.28;;;22.26;51.30
49827;BME280;35715;51.570;6.036;2023-04-23T07:42:50;100500.78;;;22.25;49.57
49827;BME280;35715;51.570;6.036;2023-04-23T07:45:16;100496.84;;;21.95;48.23
49827;BME280;35715;51.570;6.036;2023-04-23T07:47:44;100496.47;;;22.29;50.21
49827;BME280;35715;51.570;6.036;2023-04-23T07:50:12;100501.66;;;22.24;47.50
49827;BME280;35715;51.570;6.036;2023-04-23T07:52:38;100501.16;;;22.48;47.90
49827;BME280;35715;51.570;6.036;2023-04-23T07:55:04;100495.94;;;22.52;49.19
49827;BME280;35715;51.570;6.036;2023-04-23T07:57:29;100492.75;;;22.79;47.57
49827;BME280;35715;51.570;6.036;2023-04-23T07:59:55;100494.81;;;23.04;46.09
49827;BME280;35715;51.570;6.036;2023-04-23T08:02:21;100487.78;;;23.03;45.83
49827;BME280;35715;51.570;6.036;2023-04-23T08:04:50;100492.44;;;23.28;45.54
49827;BME280;35715;51.570;6.036;2023-04-23T08:07:15;100492.91;;;23.77;46.23
49827;BME280;35715;51.570;6.036;2023-04-23T08:09:43;100483.84;;;23.46;45.91
49827;BME280;35715;51.570;6.036;2023-04-23T08:12:08;100480.38;;;23.48;46.60
49827;BME280;35715;51.570;6.036;2023-04-23T08:14:34;100475.28;;;23.70;46.10
49827;BME280;35715;51.570;6.036;2023-04-23T08:17:00;100483.31;;;23.85;44.39
49827;BME280;35715;51.570;6.036;2023-04-23T08:19:38;100473.06;;;24.29;44.24
49827;BME280;35715;51.570;6.036;2023-04-23T08:22:03;100488.25;;;24.73;44.23
49827;BME280;35715;51.570;6.036;2023-04-23T08:24:29;100484.84;;;25.17;44.45
49827;BME280;35715;51.570;6.036;2023-04-23T08:26:55;100484.03;;;25.40;42.67
49827;BME280;35715;51.570;6.036;2023-04-23T08:29:20;100484.44;;;24.23;42.81
49827;BME280;35715;51.570;6.036;2023-04-23T08:31:46;100479.47;;;24.82;43.44
49827;BME280;35715;51.570;6.036;2023-04-23T08:34:11;100469.00;;;25.20;43.35
49827;BME280;35715;51.570;6.036;2023-04-23T08:36:36;100472.47;;;24.96;42.20
49827;BME280;35715;51.570;6.036;2023-04-23T08:39:06;100464.97;;;23.99;44.59
49827;BME280;35715;51.570;6.036;2023-04-23T08:41:33;100467.09;;;23.41;45.05
49827;BME280;35715;51.570;6.036;2023-04-23T08:44:02;100462.16;;;23.79;43.58
49827;BME280;35715;51.570;6.036;2023-04-23T08:46:30;100476.84;;;24.88;42.45
49827;BME280;35715;51.570;6.036;2023-04-23T08:49:00;100476.06;;;25.27;43.40
49827;BME280;35715;51.570;6.036;2023-04-23T08:51:27;100463.78;;;25.79;41.17
49827;BME280;35715;51.570;6.036;2023-04-23T08:53:55;100464.59;;;26.26;40.19
49827;BME280;35715;51.570;6.036;2023-04-23T08:56:22;100461.03;;;26.27;37.79
49827;BME280;35715;51.570;6.036;2023-04-23T08:58:55;100470.75;;;26.28;36.39
49827;BME280;35715;51.570;6.036;2023-04-23T09:01:20;100462.88;;;25.91;38.78
49827;BME280;35715;51.570;6.036;2023-04-23T09:03:45;100463.75;;;25.99;39.18
49827;BME280;35715;51.570;6.036;2023-04-23T09:06:11;100460.06;;;26.54;39.84
49827;BME280;35715;51.570;6.036;2023-04-23T09:08:38;100459.88;;;27.00;37.74
49827;BME280;35715;51.570;6.036;2023-04-23T09:11:03;100457.19;;;27.05;37.72
49827;BME280;35715;51.570;6.036;2023-04-23T09:13:29;100450.28;;;26.78;38.48
49827;BME280;35715;51.570;6.036;2023-04-23T09:15:56;100458.00;;;27.19;39.23
49827;BME280;35715;51.570;6.036;2023-04-23T09:18:26;100458.22;;;26.78;38.11
49827;BME280;35715;51.570;6.036;2023-04-23T09:20:51;100448.75;;;26.19;34.67
49827;BME280;35715;51.570;6.036;2023-04-23T09:23:17;100457.56;;;25.21;36.89
49827;BME280;35715;51.570;6.036;2023-04-23T09:25:45;100454.00;;;25.04;39.67
49827;BME280;35715;51.570;6.036;2023-04-23T09:28:15;100445.25;;;25.82;39.48
49827;BME280;35715;51.570;6.036;2023-04-23T09:30:44;100444.34;;;26.11;39.65
49827;BME280;35715;51.570;6.036;2023-04-23T09:33:10;100453.09;;;26.28;35.95
49827;BME280;35715;51.570;6.036;2023-04-23T09:35:36;100446.69;;;26.89;36.40
49827;BME280;35715;51.570;6.036;2023-04-23T09:38:02;100444.00;;;26.97;37.50
49827;BME280;35715;51.570;6.036;2023-04-23T09:40:31;100439.59;;;26.93;34.65
49827;BME280;35715;51.570;6.036;2023-04-23T09:42:57;100436.44;;;25.94;35.67
49827;BME280;35715;51.570;6.036;2023-04-23T09:45:22;100434.66;;;25.12;39.35
49827;BME280;35715;51.570;6.036;2023-04-23T09:47:51;100424.13;;;25.77;39.72
49827;BME280;35715;51.570;6.036;2023-04-23T09:50:17;100438.25;;;25.62;35.89
49827;BME280;35715;51.570;6.036;2023-04-23T09:52:42;100430.91;;;26.72;35.61
49827;BME280;35715;51.570;6.036;2023-04-23T09:55:08;100425.34;;;27.14;35.31
49827;BME280;35715;51.570;6.036;2023-04-23T09:57:39;100434.88;;;27.40;34.24
49827;BME280;35715;51.570;6.036;2023-04-23T10:00:15;100428.19;;;26.88;32.25
49827;BME280;35715;51.570;6.036;2023-04-23T10:02:49;100416.09;;;26.20;34.45
49827;BME280;35715;51.570;6.036;2023-04-23T10:05:19;100430.31;;;25.61;36.29
49827;BME280;35715;51.570;6.036;2023-04-23T10:07:51;100419.47;;;24.43;36.41
49827;BME280;35715;51.570;6.036;2023-04-23T10:10:17;100421.28;;;24.52;37.71
49827;BME280;35715;51.570;6.036;2023-04-23T10:12:43;100413.97;;;23.92;37.33
49827;BME280;35715;51.570;6.036;2023-04-23T10:15:09;100414.72;;;23.76;39.40
49827;BME280;35715;51.570;6.036;2023-04-23T10:17:35;100418.84;;;23.42;40.01
49827;BME280;35715;51.570;6.036;2023-04-23T10:20:00;100421.28;;;23.17;41.37
49827;BME280;35715;51.570;6.036;2023-04-23T10:22:26;100419.16;;;22.82;41.28
49827;BME280;35715;51.570;6.036;2023-04-23T10:24:53;100421.44;;;22.54;41.89
49827;BME280;35715;51.570;6.036;2023-04-23T10:27:21;100415.53;;;22.74;41.79
49827;BME280;35715;51.570;6.036;2023-04-23T10:29:49;100414.19;;;23.11;41.73
49827;BME280;35715;51.570;6.036;2023-04-23T10:32:15;100413.22;;;23.03;41.51
49827;BME280;35715;51.570;6.036;2023-04-23T10:34:41;100406.00;;;22.82;41.44
49827;BME280;35715;51.570;6.036;2023-04-23T10:37:07;100409.66;;;22.99;41.01
49827;BME280;35715;51.570;6.036;2023-04-23T10:39:33;100409.97;;;23.26;41.71
49827;BME280;35715;51.570;6.036;2023-04-23T10:41:59;100396.84;;;23.32;38.31
49827;BME280;35715;51.570;6.036;2023-04-23T10:44:31;100408.81;;;23.02;38.31
49827;BME280;35715;51.570;6.036;2023-04-23T10:46:56;100390.44;;;23.07;38.49
49827;BME280;35715;51.570;6.036;2023-04-23T10:49:24;100401.38;;;22.61;39.65
49827;BME280;35715;51.570;6.036;2023-04-23T10:51:57;100388.63;;;22.21;40.71
49827;BME280;35715;51.570;6.036;2023-04-23T10:54:24;100379.38;;;21.87;42.14
49827;BME280;35715;51.570;6.036;2023-04-23T10:56:56;100385.69;;;22.00;40.50
49827;BME280;35715;51.570;6.036;2023-04-23T10:59:23;100379.56;;;22.01;40.94
49827;BME280;35715;51.570;6.036;2023-04-23T11:01:49;100377.13;;;22.14;42.26
49827;BME280;35715;51.570;6.036;2023-04-23T11:12:50;100370.75;;;22.67;42.11
49827;BME280;35715;51.570;6.036;2023-04-23T11:14:51;100366.19;;;22.51;40.01
49827;BME280;35715;51.570;6.036;2023-04-23T11:18:01;100363.28;;;22.29;41.09
49827;BME280;35715;51.570;6.036;2023-04-23T11:25:13;100349.84;;;22.03;42.30
49827;BME280;35715;51.570;6.036;2023-04-23T11:27:39;100351.28;;;21.81;42.17
49827;BME280;35715;51.570;6.036;2023-04-23T11:30:06;100357.72;;;21.43;42.92
49827;BME280;35715;51.570;6.036;2023-04-23T11:32:33;100373.88;;;21.15;45.99
49827;BME280;35715;51.570;6.036;2023-04-23T11:34:59;100381.94;;;20.77;50.34
49827;BME280;35715;51.570;6.036;2023-04-23T11:37:28;100375.34;;;19.72;55.38
49827;BME280;35715;51.570;6.036;2023-04-23T11:40:04;100360.84;;;19.12;56.97
49827;BME280;35715;51.570;6.036;2023-04-23T11:42:30;100349.56;;;19.51;56.53
49827;BME280;35715;51.570;6.036;2023-04-23T11:44:55;100338.94;;;19.81;54.71
49827;BME280;35715;51.570;6.036;2023-04-23T11:47:21;100338.47;;;20.44;51.42
49827;BME280;35715;51.570;6.036;2023-04-23T11:49:50;100333.66;;;21.16;52.07
49827;BME280;35715;51.570;6.036;2023-04-23T11:52:16;100319.38;;;21.52;50.95
49827;BME280;35715;51.570;6.036;2023-04-23T11:54:41;100327.44;;;21.64;48.70
49827;BME280;35715;51.570;6.036;2023-04-23T11:57:06;100311.69;;;21.66;48.31
49827;BME280;35715;51.570;6.036;2023-04-23T11:59:38;100308.25;;;21.70;49.37
49827;BME280;35715;51.570;6.036;2023-04-23T12:02:03;100308.44;;;21.84;49.26
49827;BME280;35715;51.570;6.036;2023-04-23T12:04:29;100303.56;;;22.16;49.89
49827;BME280;35715;51.570;6.036;2023-04-23T12:06:55;100302.09;;;22.38;45.87
49827;BME280;35715;51.570;6.036;2023-04-23T12:12:00;100295.72;;;23.08;48.17
49827;BME280;35715;51.570;6.036;2023-04-23T12:14:27;100286.22;;;23.21;45.90
49827;BME280;35715;51.570;6.036;2023-04-23T12:16:52;100285.56;;;23.62;45.11
49827;BME280;35715;51.570;6.036;2023-04-23T12:19:20;100263.84;;;24.16;44.28
49827;BME280;35715;51.570;6.036;2023-04-23T12:21:50;100260.41;;;24.55;43.90
49827;BME280;35715;51.570;6.036;2023-04-23T12:24:18;100259.56;;;24.67;42.79
49827;BME280;35715;51.570;6.036;2023-04-23T12:26:43;100255.16;;;24.58;39.83
49827;BME280;35715;51.570;6.036;2023-04-23T12:29:17;100270.06;;;24.44;39.85
49827;BME280;35715;51.570;6.036;2023-04-23T12:31:42;100266.50;;;24.33;43.21
49827;BME280;35715;51.570;6.036;2023-04-23T12:34:08;100257.69;;;24.03;37.73
49827;BME280;35715;51.570;6.036;2023-04-23T12:36:37;100254.03;;;23.74;38.87
49827;BME280;35715;51.570;6.036;2023-04-23T12:41:56;100240.81;;;23.64;39.02
49827;BME280;35715;51.570;6.036;2023-04-23T12:44:24;100240.09;;;24.06;41.19
49827;BME280;35715;51.570;6.036;2023-04-23T12:46:54;100223.44;;;24.23;36.72
49827;BME280;35715;51.570;6.036;2023-04-23T12:49:31;100232.22;;;24.16;37.11
49827;BME280;35715;51.570;6.036;2023-04-23T12:51:57;100228.69;;;24.00;38.93
49827;BME280;35715;51.570;6.036;2023-04-23T12:54:25;100225.16;;;24.08;36.36
49827;BME280;35715;51.570;6.036;2023-04-23T12:56:51;100238.09;;;23.48;36.83
49827;BME280;35715;51.570;6.036;2023-04-23T13:02:13;100226.06;;;22.61;37.78
49827;BME280;35715;51.570;6.036;2023-04-23T13:04:39;100212.69;;;22.32;38.32
49827;BME280;35715;51.570;6.036;2023-04-23T13:07:04;100211.28;;;21.87;39.37
49827;BME280;35715;51.570;6.036;2023-04-23T13:12:00;100205.38;;;22.05;38.70
49827;BME280;35715;51.570;6.036;2023-04-23T13:14:26;100200.22;;;22.17;40.54
49827;BME280;35715;51.570;6.036;2023-04-23T13:16:52;100193.69;;;21.78;40.76
49827;BME280;35715;51.570;6.036;2023-04-23T13:22:03;100182.78;;;21.45;40.73
49827;BME280;35715;51.570;6.036;2023-04-23T13:24:29;100188.69;;;21.31;41.99
49827;BME280;35715;51.570;6.036;2023-04-23T13:26:54;100184.06;;;21.11;40.94
49827;BME280;35715;51.570;6.036;2023-04-23T13:29:25;100182.75;;;20.81;41.50
49827;BME280;35715;51.570;6.036;2023-04-23T13:31:53;100182.50;;;20.66;41.64
49827;BME280;35715;51.570;6.036;2023-04-23T13:34:19;100178.31;;;20.79;41.79
49827;BME280;35715;51.570;6.036;2023-04-23T13:36:44;100164.81;;;21.09;42.60